This is the latest recevied weather packets stored in our database for station/object N7TUG-8. If no packets are shown the sender has not sent any weather packets the latest 10 day(s).
| Time | Temp. | Humidity | Pressure | Rain* | Wind** | Luminosity | Snow |
|---|---|---|---|---|---|---|---|
| 1777700947 | 15° C | 77% | 1015.6 hPa | 0 mm | 0.89 m/s, 237° | - | - |
| 1777700816 | 15° C | 77% | 1015.6 hPa | 0 mm | 0.89 m/s, 237° | - | - |
| 1777700112 | 15° C | 75% | 1015.4 hPa | 0 mm | 1.34 m/s, 250° | - | - |
| 1777700021 | 15° C | 75% | 1015.4 hPa | 0 mm | 1.34 m/s, 250° | - | - |
| 1777699373 | 16.11° C | 71% | 1015.4 hPa | 0 mm | 0.89 m/s, 251° | - | - |
| 1777699146 | 16.11° C | 71% | 1015.3 hPa | 0 mm | 0.89 m/s, 238° | - | - |
| 1777698657 | 16.11° C | 71% | 1015.3 hPa | 0 mm | 0.89 m/s, 254° | - | - |
| 1777698351 | 16.11° C | 71% | 1015.2 hPa | 0 mm | 0.89 m/s, 258° | - | - |
| 1777697857 | 16.11° C | 71% | 1015.2 hPa | 0 mm | 0.45 m/s, 244° | - | - |
| 1777697451 | 16.11° C | 71% | 1015.2 hPa | 0 mm | 0.45 m/s, 266° | - | - |
| 1777696506 | 17.78° C | 67% | 1015 hPa | 0 mm | 0.89 m/s, 211° | - | - |
| 1777696277 | 17.78° C | 67% | 1015 hPa | 0 mm | 0.89 m/s, 211° | - | - |
| 1777695606 | 18.33° C | 66% | 1014.7 hPa | 0 mm | 0.45 m/s, 205° | - | - |
| 1777694826 | 17.78° C | 65% | 1014.7 hPa | 0 mm | 0.89 m/s, 236° | - | - |
| 1777694672 | 17.78° C | 65% | 1014.7 hPa | 0 mm | 0.89 m/s, 241° | - | - |
| 1777693891 | 18.33° C | 64% | 1014.7 hPa | 0 mm | 0.89 m/s, 233° | - | - |
| 1777692946 | 18.89° C | 62% | 1014.5 hPa | 0 mm | 0.89 m/s, 213° | - | - |
| 1777692412 | 18.33° C | 62% | 1014.4 hPa | 0 mm | 0.89 m/s, 323° | - | - |
| 1777692126 | 18.33° C | 61% | 1014.3 hPa | 0 mm | 0.89 m/s, 341° | - | - |
| 1777691512 | 18.33° C | 61% | 1014.2 hPa | 0 mm | 0.89 m/s, 319° | - | - |
| 1777691306 | 18.33° C | 61% | 1014.1 hPa | 0 mm | 1.34 m/s, 292° | - | - |
| 1777690647 | 18.33° C | 62% | 1014 hPa | 0 mm | 0.89 m/s, 278° | - | - |
| 1777690361 | 18.33° C | 63% | 1014.1 hPa | 0 mm | 0.45 m/s, 281° | - | - |
| 1777689757 | 18.89° C | 64% | 1013.9 hPa | 0 mm | 0.89 m/s, 194° | - | - |
| 1777689566 | 18.33° C | 64% | 1014.1 hPa | 0 mm | 1.34 m/s, 310° | - | - |
* Rain latest hour (hover to see other rain measurements)
** Current wind speed in m/s (hover to see current wind gust speed)